Time;durP1;ratioP1;P1;durP2;ratioP2;P2;SDS_P1;SDS_P2;PMS_P1;PMS_P2;Temp;Humidity;BMP_temperature;BMP_pressure;BME280_temperature;BME280_humidity;BME280_pressure;Samples;Min_cycle;Max_cycle;Signal;HPM_P1;HPM_P2
2022/12/06 00:01:23;;;;;;;5.90;4.28;;;5.30;99.90;;;;;;5030932;28;20053;-75
2022/12/06 00:03:54;;;;;;;7.28;4.18;;;5.40;99.90;;;;;;5030946;28;20455;-76
2022/12/06 00:06:22;;;;;;;5.90;3.83;;;5.50;99.90;;;;;;5031414;28;20098;-74
2022/12/06 00:08:49;;;;;;;7.97;4.50;;;5.50;99.90;;;;;;5030083;28;20400;-75
2022/12/06 00:11:17;;;;;;;6.35;4.22;;;5.20;99.90;;;;;;5030727;28;20375;-75
2022/12/06 00:13:44;;;;;;;8.30;4.80;;;5.20;99.90;;;;;;5031018;28;20463;-76
2022/12/06 00:16:12;;;;;;;8.25;4.65;;;5.20;99.90;;;;;;5029704;28;20030;-76
2022/12/06 00:18:39;;;;;;;8.00;4.50;;;5.20;99.90;;;;;;5030263;28;20068;-75
2022/12/06 00:21:30;;;;;;;17.70;8.90;;;5.30;99.90;;;;;;5030633;28;20053;-74
2022/12/06 00:24:05;;;;;;;11.13;6.55;;;5.20;99.90;;;;;;5030811;28;20464;-75
2022/12/06 00:26:34;;;;;;;7.88;4.93;;;5.00;99.90;;;;;;5030815;28;20091;-74
2022/12/06 00:29:00;;;;;;;8.85;5.45;;;5.10;99.90;;;;;;5029777;28;20056;-76
2022/12/06 00:31:27;;;;;;;10.90;6.78;;;5.20;99.90;;;;;;5030774;28;20022;-75
2022/12/06 00:33:54;;;;;;;10.35;6.05;;;5.40;99.90;;;;;;5030690;28;20036;-75
2022/12/06 00:36:25;;;;;;;9.80;5.93;;;5.10;99.90;;;;;;5030212;28;20116;-77
2022/12/06 00:38:51;;;;;;;10.77;5.75;;;5.30;99.90;;;;;;5030984;28;20410;-75
2022/12/06 00:41:22;;;;;;;9.75;5.43;;;5.30;99.90;;;;;;5030890;28;20029;-77
2022/12/06 00:43:49;;;;;;;7.70;4.95;;;5.30;99.90;;;;;;5030740;28;20030;-76
2022/12/06 00:46:17;;;;;;;8.68;5.18;;;5.40;99.90;;;;;;5030591;28;20056;-75
2022/12/06 00:48:44;;;;;;;7.80;4.38;;;5.40;99.90;;;;;;5030635;28;20491;-76
2022/12/06 00:51:10;;;;;;;8.23;5.13;;;5.20;99.90;;;;;;5031322;28;20087;-77
2022/12/06 00:53:36;;;;;;;7.80;4.90;;;5.20;99.90;;;;;;5030499;28;20037;-77
2022/12/06 00:56:02;;;;;;;8.10;4.63;;;5.20;99.90;;;;;;5030627;28;20049;-76
2022/12/06 00:58:28;;;;;;;9.43;4.85;;;5.20;99.90;;;;;;5029483;28;20379;-77
2022/12/06 01:00:54;;;;;;;10.13;4.85;;;5.10;99.90;;;;;;5030427;28;20034;-76
2022/12/06 01:03:20;;;;;;;8.02;4.97;;;5.10;99.90;;;;;;5030868;28;20060;-75
2022/12/06 01:05:49;;;;;;;7.95;4.95;;;5.20;99.90;;;;;;5030394;28;20046;-75
2022/12/06 01:08:17;;;;;;;8.18;4.80;;;5.30;99.90;;;;;;5030103;28;20111;-76
2022/12/06 01:10:50;;;;;;;;;;;5.30;99.90;;;;;;5034539;28;20033;-76
2022/12/06 01:13:15;;;;;;;7.82;4.65;;;5.10;99.90;;;;;;5033684;28;19921;-75
2022/12/06 01:15:41;;;;;;;9.27;5.20;;;4.90;99.90;;;;;;5033926;28;20025;-76
2022/12/06 01:18:06;;;;;;;8.00;4.85;;;4.90;99.90;;;;;;5034209;28;20383;-75
2022/12/06 01:20:33;;;;;;;11.02;5.93;;;4.90;99.90;;;;;;5032483;28;20325;-75
2022/12/06 01:22:58;;;;;;;7.68;5.13;;;5.00;99.90;;;;;;5032725;28;20087;-75
2022/12/06 01:25:24;;;;;;;8.60;5.15;;;5.10;99.90;;;;;;5033675;28;20030;-76
2022/12/06 01:27:50;;;;;;;7.53;5.07;;;5.00;99.90;;;;;;5033726;28;20506;-75
2022/12/06 01:30:16;;;;;;;7.63;5.35;;;5.10;99.90;;;;;;5033100;28;20057;-76
2022/12/06 01:32:41;;;;;;;7.38;5.30;;;5.20;99.90;;;;;;5032460;28;20120;-74
2022/12/06 01:35:07;;;;;;;10.27;5.50;;;5.30;99.90;;;;;;5032550;28;20037;-76
2022/12/06 01:37:33;;;;;;;9.32;5.28;;;5.20;99.90;;;;;;5033401;28;20095;-75
2022/12/06 01:39:58;;;;;;;6.63;5.00;;;5.20;99.90;;;;;;5033406;28;25634;-75
2022/12/06 01:42:24;;;;;;;8.73;5.68;;;5.10;99.90;;;;;;5033800;28;20104;-75
2022/12/06 01:44:54;;;;;;;8.45;5.05;;;5.00;99.90;;;;;;5034011;28;20033;-75
2022/12/06 01:47:33;;;;;;;10.60;5.93;;;4.90;99.90;;;;;;5032507;28;20057;-74
2022/12/06 01:50:23;;;;;;;8.70;5.43;;;4.90;99.90;;;;;;5033314;28;20125;-74
2022/12/06 01:52:57;;;;;;;10.23;5.35;;;5.10;99.90;;;;;;5033234;28;20155;-76
2022/12/06 01:55:27;;;;;;;9.55;5.10;;;5.20;99.90;;;;;;5033149;28;20038;-75
2022/12/06 01:57:58;;;;;;;9.68;5.38;;;5.30;99.90;;;;;;5031955;28;20336;-75
2022/12/06 02:00:24;;;;;;;8.45;4.82;;;5.30;99.90;;;;;;5032495;28;20379;-75
2022/12/06 02:02:50;;;;;;;10.52;4.85;;;5.30;99.90;;;;;;5032244;28;20026;-73
2022/12/06 02:05:16;;;;;;;9.27;4.85;;;5.10;99.90;;;;;;5031867;28;20363;-75
2022/12/06 02:07:43;;;;;;;5.30;3.65;;;5.00;99.90;;;;;;5031931;28;20065;-75
2022/12/06 02:10:09;;;;;;;7.03;4.30;;;4.80;99.90;;;;;;5032574;28;20056;-74
2022/12/06 02:12:35;;;;;;;6.30;4.00;;;4.90;99.90;;;;;;5032093;28;20053;-75
2022/12/06 02:15:01;;;;;;;6.15;3.63;;;4.70;99.90;;;;;;5033013;28;20037;-73
2022/12/06 02:17:56;;;;;;;6.20;3.97;;;4.70;99.90;;;;;;5031894;28;20033;-75
2022/12/06 02:20:54;;;;;;;7.47;4.55;;;4.80;99.90;;;;;;5028491;28;20051;-75
2022/12/06 02:23:39;;;;;;;4.97;3.30;;;4.60;99.90;;;;;;5027514;28;20348;-73
2022/12/06 02:26:17;;;;;;;7.18;4.22;;;4.70;99.90;;;;;;5032509;28;20171;-76
2022/12/06 02:29:11;;;;;;;7.38;4.45;;;4.80;99.90;;;;;;5033081;28;20029;-75
2022/12/06 02:31:58;;;;;;;5.28;4.00;;;4.60;99.90;;;;;;5032938;28;20026;-74
2022/12/06 02:34:55;;;;;;;6.43;4.07;;;4.60;99.90;;;;;;5032449;28;20053;-75
2022/12/06 02:37:33;;;;;;;7.43;4.30;;;4.50;99.90;;;;;;5012758;28;20034;-75
2022/12/06 02:40:05;;;;;;;;;;;4.60;99.90;;;;;;5013344;28;20029;-75
2022/12/06 02:42:48;;;;;;;7.47;3.95;;;4.60;99.90;;;;;;5013058;28;19963;-74
2022/12/06 02:45:18;;;;;;;6.43;4.03;;;4.70;99.90;;;;;;5028103;28;20459;-74
2022/12/06 02:47:46;;;;;;;6.72;4.03;;;4.70;99.90;;;;;;5012575;28;20034;-76
2022/12/06 02:50:20;;;;;;;;;;;4.60;99.90;;;;;;5013007;28;20113;-75
2022/12/06 02:52:48;;;;;;;9.40;4.25;;;4.60;99.90;;;;;;5012743;28;20254;-75
2022/12/06 02:55:17;;;;;;;5.70;3.42;;;4.60;99.90;;;;;;5012530;28;20108;-74
2022/12/06 02:57:45;;;;;;;4.75;3.50;;;4.60;99.90;;;;;;5012372;28;20109;-74
2022/12/06 03:00:40;;;;;;;6.05;3.88;;;4.70;99.90;;;;;;5012705;28;20437;-74
2022/12/06 03:03:34;;;;;;;5.82;3.47;;;4.70;99.90;;;;;;5012267;28;20423;-75
2022/12/06 03:06:10;;;;;;;4.38;3.25;;;4.70;99.90;;;;;;5011070;28;20038;-75
2022/12/06 03:08:44;;;;;;;4.68;3.38;;;4.60;99.90;;;;;;5012031;28;20096;-76
2022/12/06 03:11:11;;;;;;;5.28;3.45;;;4.70;99.90;;;;;;5012233;28;20044;-75
2022/12/06 03:14:02;;;;;;;5.15;3.50;;;4.50;99.90;;;;;;5012327;28;20042;-76
2022/12/06 03:16:31;;;;;;;4.70;3.20;;;4.60;99.90;;;;;;5012069;28;20034;-75
2022/12/06 03:19:18;;;;;;;5.32;3.33;;;4.60;99.90;;;;;;5011053;28;20454;-76
2022/12/06 03:21:56;;;;;;;5.20;3.13;;;4.70;99.90;;;;;;5010924;28;20037;-74
2022/12/06 03:24:23;;;;;;;5.57;3.47;;;4.70;99.90;;;;;;5011567;28;20025;-74
2022/12/06 03:26:50;;;;;;;6.70;3.72;;;4.50;99.90;;;;;;5011052;28;20399;-74
2022/12/06 03:29:20;;;;;;;5.13;3.75;;;4.60;99.90;;;;;;5012061;28;20045;-74
2022/12/06 03:31:48;;;;;;;4.53;3.22;;;4.80;99.90;;;;;;5011717;28;20034;-74
2022/12/06 03:34:21;;;;;;;7.78;3.35;;;4.80;99.90;;;;;;5010642;28;20041;-74
2022/12/06 03:36:49;;;;;;;4.63;3.20;;;4.60;99.90;;;;;;5011956;28;20029;-76
2022/12/06 03:39:24;;;;;;;4.20;3.10;;;4.60;99.90;;;;;;5012106;28;20014;-76
2022/12/06 03:41:55;;;;;;;4.40;3.25;;;4.70;99.90;;;;;;5011715;28;20038;-74
2022/12/06 03:44:22;;;;;;;6.13;3.30;;;4.60;99.90;;;;;;5011814;28;20121;-75
2022/12/06 03:46:52;;;;;;;5.47;3.40;;;4.50;99.90;;;;;;5011487;28;20049;-74
2022/12/06 03:49:36;;;;;;;4.95;3.25;;;4.60;99.90;;;;;;5011544;28;20037;-75
2022/12/06 03:52:02;;;;;;;5.22;3.22;;;4.60;99.90;;;;;;5027098;28;20052;-74
2022/12/06 03:54:28;;;;;;;5.22;3.00;;;4.40;99.90;;;;;;5011920;28;20080;-74
2022/12/06 03:56:54;;;;;;;6.05;4.00;;;4.50;99.90;;;;;;5026901;28;20038;-75
2022/12/06 03:59:20;;;;;;;7.70;3.97;;;4.50;99.90;;;;;;5011879;28;20404;-75
2022/12/06 04:01:45;;;;;;;6.10;4.15;;;4.40;99.90;;;;;;5011367;28;20034;-74
2022/12/06 04:04:11;;;;;;;5.80;3.78;;;4.40;99.90;;;;;;5011297;28;20076;-74
2022/12/06 04:06:37;;;;;;;5.57;4.07;;;4.50;99.90;;;;;;5012043;28;20038;-74
2022/12/06 04:11:47;;;;;;;9.85;4.43;;;4.60;99.90;;;;;;5011069;28;20069;-73
2022/12/06 04:14:13;;;;;;;7.88;4.82;;;4.70;99.90;;;;;;5011578;28;20034;-74
2022/12/06 04:19:22;;;;;;;8.18;4.72;;;4.80;99.90;;;;;;5011522;28;20126;-75
2022/12/06 04:24:32;;;;;;;7.65;4.53;;;4.70;99.90;;;;;;5011714;28;20049;-74
2022/12/06 04:28:40;;;;;;;8.48;5.47;;;4.70;99.90;;;;;;5011088;28;20026;-75
2022/12/06 04:40:42;;;;;;;7.90;5.45;;;4.50;99.90;;;;;;5010965;28;20522;-74
2022/12/06 04:45:54;;;;;;;8.98;5.20;;;4.60;99.90;;;;;;5015022;28;20561;-74
2022/12/06 04:48:20;;;;;;;8.00;5.60;;;4.70;99.90;;;;;;5015211;28;20018;-74
2022/12/06 04:50:49;;;;;;;8.20;5.20;;;4.80;99.90;;;;;;5014652;28;20341;-74
2022/12/06 04:53:15;;;;;;;9.05;5.10;;;4.90;99.90;;;;;;5013456;28;20038;-75
2022/12/06 04:55:45;;;;;;;11.98;5.88;;;4.90;99.90;;;;;;5014738;28;20119;-75
2022/12/06 04:58:11;;;;;;;10.48;5.10;;;4.90;99.90;;;;;;5029968;28;20108;-74
2022/12/06 05:00:36;;;;;;;13.95;5.97;;;4.90;99.90;;;;;;5015308;28;20114;-75
2022/12/06 05:03:02;;;;;;;7.88;5.15;;;4.90;99.90;;;;;;5014594;28;20514;-75
2022/12/06 05:05:28;;;;;;;6.93;4.88;;;4.70;99.90;;;;;;5014581;28;20065;-74
2022/12/06 05:07:53;;;;;;;9.57;4.97;;;4.90;99.90;;;;;;5014302;28;20364;-75
2022/12/06 05:10:19;;;;;;;9.38;5.65;;;5.00;99.90;;;;;;5014244;28;20368;-76
2022/12/06 05:12:45;;;;;;;14.25;5.93;;;4.90;99.90;;;;;;5013956;28;20060;-74
2022/12/06 05:15:10;;;;;;;9.52;5.78;;;5.00;99.90;;;;;;5014885;28;20042;-75
2022/12/06 05:17:36;;;;;;;10.35;5.32;;;5.10;99.90;;;;;;5014306;28;20524;-75
2022/12/06 05:20:02;;;;;;;11.20;4.80;;;5.10;99.90;;;;;;5014136;28;20085;-75
2022/12/06 05:22:32;;;;;;;9.90;5.60;;;5.10;99.90;;;;;;5014105;28;20060;-74
2022/12/06 05:24:57;;;;;;;9.02;5.80;;;5.10;99.90;;;;;;5014171;28;20021;-76
2022/12/06 05:27:23;;;;;;;10.50;5.30;;;5.20;99.90;;;;;;5015042;28;20041;-75
2022/12/06 05:29:48;;;;;;;11.55;5.60;;;5.10;99.90;;;;;;5013885;28;20482;-76
2022/12/06 05:32:14;;;;;;;12.65;5.88;;;5.00;99.90;;;;;;5012952;28;20096;-74
2022/12/06 05:34:40;;;;;;;10.68;5.97;;;4.90;99.90;;;;;;5014079;28;20044;-75
2022/12/06 05:37:05;;;;;;;11.82;5.53;;;5.00;99.90;;;;;;5013767;28;20061;-75
2022/12/06 05:39:31;;;;;;;13.63;5.18;;;4.90;99.90;;;;;;5014321;28;20048;-75
2022/12/06 05:41:57;;;;;;;13.32;5.70;;;4.90;99.90;;;;;;5013605;28;20034;-76
2022/12/06 05:44:22;;;;;;;13.63;5.97;;;4.90;99.90;;;;;;5014054;28;20030;-76
2022/12/06 05:46:48;;;;;;;10.65;5.70;;;5.00;99.90;;;;;;5013409;28;20088;-75
2022/12/06 05:49:14;;;;;;;11.73;5.82;;;5.10;99.90;;;;;;5029545;28;20041;-73
2022/12/06 05:51:39;;;;;;;12.65;6.35;;;5.20;99.90;;;;;;5013767;28;20092;-75
2022/12/06 05:54:05;;;;;;;12.70;6.88;;;5.30;99.90;;;;;;5013928;28;20051;-75
2022/12/06 05:56:32;;;;;;;15.38;7.43;;;5.10;99.90;;;;;;5013675;28;20354;-74
2022/12/06 05:58:57;;;;;;;13.93;6.40;;;5.00;99.90;;;;;;5013834;28;20034;-74
2022/12/06 06:01:23;;;;;;;11.25;5.55;;;5.10;99.90;;;;;;5013867;28;20520;-75
2022/12/06 06:03:49;;;;;;;13.05;6.53;;;5.10;99.90;;;;;;5013681;28;20444;-74
2022/12/06 06:06:15;;;;;;;17.63;7.35;;;5.20;99.90;;;;;;5013787;28;20076;-75
2022/12/06 06:08:41;;;;;;;15.07;7.13;;;5.10;99.90;;;;;;5013262;28;20030;-75
2022/12/06 06:11:07;;;;;;;12.65;6.70;;;5.20;99.90;;;;;;5028578;28;20026;-73
2022/12/06 06:13:33;;;;;;;16.30;7.35;;;5.30;99.90;;;;;;5013147;28;20065;-73
2022/12/06 06:15:58;;;;;;;14.82;6.53;;;5.40;99.90;;;;;;5012365;28;20075;-75
2022/12/06 06:18:24;;;;;;;14.20;6.97;;;5.30;99.90;;;;;;5012580;28;20468;-75
2022/12/06 06:20:56;;;;;;;14.93;7.40;;;5.30;99.90;;;;;;5013111;28;20417;-75
2022/12/06 06:23:23;;;;;;;15.07;7.03;;;5.20;99.90;;;;;;5013055;28;20037;-75
2022/12/06 06:25:49;;;;;;;13.38;6.50;;;5.30;99.90;;;;;;5011807;28;20061;-74
2022/12/06 06:28:16;;;;;;;16.02;6.72;;;5.40;99.90;;;;;;5011874;28;20073;-75
2022/12/06 06:30:42;;;;;;;15.13;7.28;;;5.40;99.90;;;;;;5013034;28;20033;-74
2022/12/06 06:33:08;;;;;;;14.00;7.07;;;5.40;99.90;;;;;;5013271;28;20022;-73
2022/12/06 06:35:35;;;;;;;13.82;7.20;;;5.40;99.90;;;;;;5012821;28;20030;-75
2022/12/06 06:38:01;;;;;;;18.85;7.75;;;5.40;99.90;;;;;;5012902;28;20030;-72
2022/12/06 06:40:27;;;;;;;17.00;7.93;;;5.40;99.90;;;;;;5012621;28;20129;-75
2022/12/06 06:42:53;;;;;;;18.23;8.38;;;5.40;99.90;;;;;;5012595;28;20037;-74
2022/12/06 06:45:19;;;;;;;14.80;7.18;;;5.50;99.90;;;;;;5013276;28;20498;-75
2022/12/06 06:47:45;;;;;;;16.73;7.72;;;5.40;99.90;;;;;;5027779;28;20049;-71
2022/12/06 06:50:11;;;;;;;17.42;8.23;;;5.50;99.90;;;;;;5012839;28;20032;-75
2022/12/06 06:52:36;;;;;;;19.10;8.30;;;5.40;99.90;;;;;;5014812;28;20041;-75
2022/12/06 06:55:02;;;;;;;15.30;8.23;;;5.50;99.90;;;;;;5012502;28;20029;-73
2022/12/06 06:57:28;;;;;;;15.23;7.75;;;5.50;99.90;;;;;;5012750;28;20026;-74
2022/12/06 06:59:55;;;;;;;18.10;8.40;;;5.50;99.90;;;;;;5012303;28;20022;-75
2022/12/06 07:02:21;;;;;;;15.73;7.90;;;5.60;99.90;;;;;;5012080;28;20053;-77
2022/12/06 07:04:48;;;;;;;19.58;8.52;;;5.80;99.90;;;;;;5012051;28;20042;-73
2022/12/06 07:07:14;;;;;;;18.52;8.68;;;5.80;99.90;;;;;;5011793;28;20550;-74
2022/12/06 07:09:40;;;;;;;23.73;9.38;;;5.70;99.90;;;;;;5011950;28;20025;-74
2022/12/06 07:12:06;;;;;;;17.65;8.52;;;5.60;99.90;;;;;;5012616;28;20395;-74
2022/12/06 07:14:32;;;;;;;28.00;9.35;;;5.70;99.90;;;;;;5012153;28;20038;-74
2022/12/06 07:16:58;;;;;;;22.25;9.30;;;5.70;99.90;;;;;;5011841;28;20026;-78
2022/12/06 07:19:24;;;;;;;25.10;9.43;;;5.80;99.90;;;;;;5012325;28;20030;-82
2022/12/06 07:21:49;;;;;;;27.95;10.98;;;5.80;99.90;;;;;;5013607;28;20079;-85
2022/12/06 07:24:15;;;;;;;25.90;9.73;;;6.00;99.90;;;;;;5013027;28;20034;-83
2022/12/06 07:26:41;;;;;;;23.05;9.43;;;5.90;99.90;;;;;;5011670;28;20045;-82
2022/12/06 07:29:07;;;;;;;27.38;11.43;;;5.90;99.90;;;;;;5013649;28;20034;-75
2022/12/06 07:31:32;;;;;;;27.17;10.73;;;5.90;99.90;;;;;;5012020;28;20034;-77
2022/12/06 07:34:00;;;;;;;22.27;10.10;;;5.90;99.90;;;;;;5012261;28;20105;-77
2022/12/06 07:36:29;;;;;;;21.73;10.38;;;5.90;99.90;;;;;;5012085;28;20044;-75
2022/12/06 07:38:56;;;;;;;23.35;10.77;;;6.00;99.90;;;;;;5010824;28;20368;-76
2022/12/06 07:46:56;;;;;;;26.20;10.55;;;5.90;99.90;;;;;;5011696;28;20037;-76
2022/12/06 07:49:22;;;;;;;37.38;15.38;;;5.90;99.90;;;;;;5010382;28;20026;-77
2022/12/06 07:51:48;;;;;;;27.60;11.55;;;6.10;99.90;;;;;;5011462;28;20112;-76
2022/12/06 07:54:15;;;;;;;26.05;10.20;;;6.00;99.90;;;;;;5010989;28;20143;-76
2022/12/06 07:56:42;;;;;;;24.23;10.10;;;6.00;99.90;;;;;;5010727;28;20042;-75
2022/12/06 07:59:08;;;;;;;21.60;10.77;;;6.10;99.90;;;;;;5011312;28;20045;-77
2022/12/06 08:01:34;;;;;;;26.40;10.35;;;6.10;99.90;;;;;;5011681;28;20038;-78
2022/12/06 08:04:01;;;;;;;24.60;11.60;;;6.10;99.90;;;;;;5011819;28;20053;-76
2022/12/06 08:06:28;;;;;;;27.77;11.63;;;6.10;99.90;;;;;;5012128;28;20029;-76
2022/12/06 08:08:54;;;;;;;31.57;11.77;;;6.10;99.90;;;;;;5011576;28;20064;-73
2022/12/06 08:11:21;;;;;;;25.60;11.48;;;6.10;99.90;;;;;;5010715;28;20053;-76
2022/12/06 08:13:47;;;;;;;27.30;11.75;;;6.10;99.90;;;;;;5012672;28;20034;-78
2022/12/06 08:16:13;;;;;;;24.13;11.50;;;6.10;99.90;;;;;;5011631;28;20073;-75
2022/12/06 08:18:40;;;;;;;21.52;10.75;;;6.20;99.90;;;;;;5012476;28;20057;-76
2022/12/06 08:21:06;;;;;;;21.20;10.63;;;6.10;99.90;;;;;;5014777;28;20037;-78
2022/12/06 08:23:32;;;;;;;20.30;10.50;;;6.10;99.90;;;;;;5016138;28;20044;-76
2022/12/06 08:25:59;;;;;;;22.25;9.70;;;6.20;99.90;;;;;;5015195;28;20120;-78
2022/12/06 08:28:26;;;;;;;23.05;10.27;;;6.20;99.90;;;;;;5014395;28;20026;-77
2022/12/06 08:30:52;;;;;;;29.13;11.57;;;6.20;99.90;;;;;;5014406;28;20058;-79
2022/12/06 08:33:18;;;;;;;23.42;11.23;;;6.30;99.90;;;;;;5016124;28;20054;-78
2022/12/06 08:35:44;;;;;;;25.20;11.23;;;6.30;99.90;;;;;;5015395;28;20029;-76
2022/12/06 08:38:09;;;;;;;20.38;10.27;;;6.30;99.90;;;;;;5015181;28;20092;-76
2022/12/06 08:40:35;;;;;;;25.55;11.40;;;6.40;99.90;;;;;;5014856;28;20065;-74
2022/12/06 08:43:00;;;;;;;24.50;11.43;;;6.40;99.90;;;;;;5013949;28;20424;-77
2022/12/06 08:45:26;;;;;;;25.88;12.50;;;6.50;99.90;;;;;;5016257;28;20026;-77
2022/12/06 08:47:53;;;;;;;31.40;12.60;;;6.20;99.90;;;;;;5015045;28;20038;-77
2022/12/06 08:50:18;;;;;;;26.35;11.88;;;6.30;99.90;;;;;;5015115;28;20030;-75
2022/12/06 08:52:44;;;;;;;34.40;14.10;;;6.20;99.90;;;;;;5015871;28;20460;-76
2022/12/06 08:55:10;;;;;;;27.75;13.00;;;6.20;99.90;;;;;;5013502;28;20437;-75
2022/12/06 08:57:36;;;;;;;29.80;12.25;;;6.20;99.90;;;;;;5015823;28;20072;-78
2022/12/06 09:00:04;;;;;;;38.80;14.88;;;6.20;99.90;;;;;;5014921;28;20029;-77
2022/12/06 09:02:30;;;;;;;32.33;13.63;;;6.30;99.90;;;;;;5013637;28;20029;-75
2022/12/06 09:04:56;;;;;;;30.92;14.10;;;6.20;99.90;;;;;;5014505;28;20026;-75
2022/12/06 09:07:22;;;;;;;30.83;13.13;;;6.20;99.90;;;;;;5014805;28;20061;-74
2022/12/06 09:09:48;;;;;;;28.50;12.70;;;6.30;99.90;;;;;;5014379;28;20440;-75
2022/12/06 09:12:15;;;;;;;31.50;13.70;;;6.30;99.90;;;;;;5013874;28;20281;-74
2022/12/06 09:14:40;;;;;;;29.75;12.68;;;6.40;99.90;;;;;;5012775;28;20080;-74
2022/12/06 09:17:06;;;;;;;29.48;13.10;;;6.40;99.90;;;;;;5011801;28;20042;-74
2022/12/06 09:19:33;;;;;;;32.17;13.73;;;6.50;99.90;;;;;;5012962;28;20042;-73
2022/12/06 09:21:59;;;;;;;31.40;13.65;;;6.40;99.90;;;;;;5012988;28;20026;-73
2022/12/06 09:24:24;;;;;;;31.38;13.55;;;6.50;99.90;;;;;;5013919;28;20038;-73
2022/12/06 09:26:50;;;;;;;33.83;14.23;;;6.50;99.90;;;;;;5012789;28;20471;-74
2022/12/06 09:29:17;;;;;;;27.77;13.20;;;6.60;99.90;;;;;;5011388;28;20026;-76
2022/12/06 09:31:43;;;;;;;32.58;14.15;;;6.70;99.90;;;;;;5012861;28;20056;-73
2022/12/06 09:34:10;;;;;;;29.58;12.55;;;6.70;99.90;;;;;;5012175;28;20523;-76
2022/12/06 09:36:45;;;;;;;31.58;12.82;;;6.50;99.90;;;;;;5012542;28;20045;-75
2022/12/06 09:39:23;;;;;;;27.33;12.80;;;6.70;99.90;;;;;;5013455;28;20444;-76
2022/12/06 09:42:07;;;;;;;28.95;11.85;;;6.60;99.90;;;;;;5013956;28;20030;-77
2022/12/06 09:44:50;;;;;;;26.67;12.15;;;6.60;99.90;;;;;;5012640;28;20054;-75
2022/12/06 09:47:40;;;;;;;25.42;11.80;;;6.60;99.90;;;;;;5012657;28;20026;-75
2022/12/06 09:50:28;;;;;;;36.97;15.85;;;6.70;99.90;;;;;;5012620;28;20487;-75
2022/12/06 09:53:16;;;;;;;26.92;12.00;;;6.70;99.90;;;;;;5014159;28;20062;-79
2022/12/06 09:56:02;;;;;;;24.27;11.10;;;6.80;99.90;;;;;;5012097;28;20427;-76
2022/12/06 09:58:46;;;;;;;24.65;11.57;;;6.70;99.90;;;;;;5012175;28;20034;-77
2022/12/06 10:01:33;;;;;;;22.67;11.43;;;6.70;99.90;;;;;;5012589;28;20311;-75
2022/12/06 10:04:20;;;;;;;23.75;11.40;;;6.80;99.90;;;;;;5014707;28;20022;-78
2022/12/06 10:07:06;;;;;;;26.75;12.02;;;6.80;99.90;;;;;;5012412;28;20120;-78
2022/12/06 10:09:41;;;;;;;22.25;10.68;;;6.80;99.90;;;;;;5012631;28;20041;-77
2022/12/06 10:12:42;;;;;;;22.42;10.02;;;6.70;99.90;;;;;;4972044;28;1174682;-78
2022/12/06 10:15:22;;;;;;;20.80;9.70;;;6.70;99.90;;;;;;5013778;28;20057;-77
2022/12/06 10:18:24;;;;;;;22.73;10.73;;;6.70;99.90;;;;;;5013432;28;20046;-77
2022/12/06 10:21:14;;;;;;;31.38;11.55;;;6.80;99.90;;;;;;5012570;28;20030;-76
2022/12/06 10:24:14;;;;;;;22.80;11.07;;;6.90;99.90;;;;;;5014398;28;20112;-76
2022/12/06 10:26:52;;;;;;;20.08;9.70;;;6.90;99.90;;;;;;5014095;28;20030;-76
2022/12/06 10:29:40;;;;;;;22.13;9.95;;;7.00;99.90;;;;;;5013692;28;20117;-77
2022/12/06 10:32:17;;;;;;;16.58;9.10;;;7.00;99.90;;;;;;5008520;28;20452;-76
2022/12/06 10:34:55;;;;;;;18.90;8.68;;;7.00;99.90;;;;;;5014053;28;20191;-77
2022/12/06 10:37:36;;;;;;;17.80;8.10;;;7.00;99.90;;;;;;5014004;28;20042;-76
2022/12/06 10:40:12;;;;;;;18.05;8.88;;;7.00;99.90;;;;;;5012512;28;20049;-76
2022/12/06 10:42:48;;;;;;;16.95;8.02;;;7.00;99.90;;;;;;5012924;28;20373;-76
2022/12/06 10:48:31;;;;;;;15.30;7.60;;;7.10;99.90;;;;;;5013120;28;20423;-78
2022/12/06 10:51:11;;;;;;;16.63;8.05;;;6.90;99.90;;;;;;5012315;28;20075;-76
2022/12/06 10:53:50;;;;;;;14.23;7.45;;;7.00;99.90;;;;;;5012895;28;20415;-77
2022/12/06 10:56:25;;;;;;;14.38;7.13;;;7.00;99.90;;;;;;5013539;28;20049;-77
2022/12/06 10:58:54;;;;;;;15.98;7.57;;;7.00;99.90;;;;;;5012925;28;20109;-78
2022/12/06 11:01:26;;;;;;;19.50;7.80;;;7.10;99.90;;;;;;5012938;28;20547;-77
2022/12/06 11:04:01;;;;;;;14.18;6.97;;;7.10;99.90;;;;;;5012047;28;20033;-77
2022/12/06 11:06:33;;;;;;;14.18;7.20;;;7.10;99.90;;;;;;5012753;28;20072;-77
2022/12/06 11:09:29;;;;;;;17.67;6.45;;;7.10;99.90;;;;;;5013068;28;20026;-78
2022/12/06 11:11:54;;;;;;;12.60;6.28;;;7.20;99.90;;;;;;5011619;28;20081;-76
2022/12/06 11:14:34;;;;;;;12.93;5.97;;;7.10;99.90;;;;;;5012682;28;20419;-77
2022/12/06 11:17:03;;;;;;;11.52;6.13;;;7.10;99.90;;;;;;5011540;28;20026;-77
2022/12/06 11:19:38;;;;;;;11.70;6.30;;;7.10;99.90;;;;;;5012615;28;20072;-76
2022/12/06 11:22:26;;;;;;;19.48;9.00;;;7.20;99.90;;;;;;5011303;28;20034;-76
2022/12/06 11:25:17;;;;;;;12.60;6.28;;;7.20;99.90;;;;;;5011574;28;20097;-77
2022/12/06 11:27:52;;;;;;;10.68;5.32;;;7.20;99.90;;;;;;5012525;28;20033;-80
2022/12/06 11:30:19;;;;;;;9.30;5.07;;;7.30;99.90;;;;;;5014130;28;20085;-77
2022/12/06 11:32:49;;;;;;;9.70;5.28;;;7.20;99.90;;;;;;5011362;28;20341;-76
2022/12/06 11:35:24;;;;;;;13.27;5.40;;;7.20;99.90;;;;;;5012702;28;20026;-77
2022/12/06 11:38:00;;;;;;;10.63;6.05;;;7.20;99.90;;;;;;5013112;28;20115;-78
2022/12/06 11:40:32;;;;;;;10.02;5.28;;;7.30;99.90;;;;;;5012289;28;20335;-73
2022/12/06 11:43:03;;;;;;;8.25;4.65;;;7.30;99.90;;;;;;5012134;28;20391;-76
2022/12/06 11:45:32;;;;;;;9.23;5.30;;;7.40;99.90;;;;;;5011935;28;20028;-76
2022/12/06 11:48:02;;;;;;;12.65;6.05;;;7.30;99.90;;;;;;5011457;28;20026;-73
2022/12/06 11:50:31;;;;;;;17.77;9.40;;;7.20;99.90;;;;;;5012060;28;20372;-77
2022/12/06 11:53:03;;;;;;;11.23;6.20;;;7.30;99.90;;;;;;5012161;28;20532;-77
2022/12/06 11:55:38;;;;;;;11.88;6.18;;;7.30;99.90;;;;;;5012206;28;20054;-77
2022/12/06 11:58:10;;;;;;;11.15;5.85;;;7.40;99.90;;;;;;5011080;28;20030;-77
2022/12/06 12:00:37;;;;;;;11.00;6.20;;;7.40;99.90;;;;;;5010811;28;20229;-79
2022/12/06 12:03:03;;;;;;;12.85;7.07;;;7.30;99.90;;;;;;5011464;28;20057;-76
2022/12/06 12:05:35;;;;;;;13.68;6.95;;;7.20;99.90;;;;;;5011760;28;20108;-74
2022/12/06 12:08:18;;;;;;;16.95;7.72;;;7.30;99.90;;;;;;5012179;28;20108;-79
2022/12/06 12:10:55;;;;;;;11.98;6.82;;;7.30;99.90;;;;;;5012057;28;20038;-76
2022/12/06 12:16:34;;;;;;;15.93;7.07;;;7.30;99.90;;;;;;5012745;28;20057;-77
2022/12/06 12:19:01;;;;;;;12.73;6.35;;;7.40;99.90;;;;;;5012150;28;20060;-77
2022/12/06 12:21:40;;;;;;;12.00;6.70;;;7.40;99.90;;;;;;5011346;28;20026;-75
2022/12/06 12:24:37;;;;;;;14.45;7.35;;;7.40;99.90;;;;;;5012801;28;20467;-78
2022/12/06 12:27:32;;;;;;;13.15;6.82;;;7.30;99.90;;;;;;5012840;28;20051;-77
2022/12/06 12:30:19;;;;;;;18.05;7.68;;;7.30;99.90;;;;;;5010738;28;20104;-75
2022/12/06 12:32:46;;;;;;;13.13;6.80;;;7.40;99.90;;;;;;5011965;28;20392;-78
2022/12/06 12:35:24;;;;;;;15.57;8.10;;;7.20;99.90;;;;;;5012480;28;20037;-76
2022/12/06 12:37:56;;;;;;;13.50;6.95;;;7.30;99.90;;;;;;5012392;28;20100;-77
2022/12/06 12:40:42;;;;;;;15.13;7.10;;;7.40;99.90;;;;;;5011685;28;20062;-78
2022/12/06 12:43:11;;;;;;;17.25;7.72;;;7.40;99.90;;;;;;5011957;28;20030;-78
2022/12/06 12:46:01;;;;;;;28.55;12.90;;;7.40;99.90;;;;;;5011672;28;20436;-74
2022/12/06 12:48:27;;;;;;;19.00;8.02;;;7.40;99.90;;;;;;5010401;28;20057;-74
2022/12/06 12:50:56;;;;;;;15.70;8.45;;;7.40;99.90;;;;;;5012871;28;20523;-75
2022/12/06 12:53:36;;;;;;;18.77;9.57;;;7.30;99.90;;;;;;5011551;28;20034;-74
2022/12/06 12:56:15;;;;;;;17.85;9.45;;;7.40;99.90;;;;;;5011379;28;20380;-76
2022/12/06 12:58:42;;;;;;;16.73;9.38;;;7.40;99.90;;;;;;5012357;28;20038;-75
2022/12/06 13:01:23;;;;;;;15.35;9.02;;;7.40;99.90;;;;;;5011280;28;20045;-74
2022/12/06 13:03:56;;;;;;;15.55;8.90;;;7.20;99.90;;;;;;5012345;28;20460;-76
2022/12/06 13:06:37;;;;;;;19.27;9.50;;;7.00;99.90;;;;;;5016705;28;20076;-75
2022/12/06 13:09:05;;;;;;;13.48;7.85;;;7.10;99.90;;;;;;5015827;28;20053;-76
2022/12/06 13:11:40;;;;;;;13.90;8.57;;;7.20;99.90;;;;;;5016561;28;20294;-75
2022/12/06 13:14:15;;;;;;;13.23;8.35;;;7.10;99.90;;;;;;5015433;28;20031;-76
2022/12/06 13:16:41;;;;;;;15.63;8.77;;;7.10;99.90;;;;;;5015861;28;20037;-74
2022/12/06 13:19:17;;;;;;;14.45;8.85;;;7.30;99.90;;;;;;5016118;28;20034;-76
2022/12/06 13:21:44;;;;;;;15.75;8.82;;;7.30;99.90;;;;;;5014243;28;20056;-75
2022/12/06 13:24:09;;;;;;;16.85;8.43;;;7.30;99.90;;;;;;5015937;28;20038;-74
2022/12/06 13:26:56;;;;;;;16.23;9.02;;;7.30;99.90;;;;;;5016034;28;20327;-75
2022/12/06 13:29:39;;;;;;;17.40;9.40;;;7.40;99.90;;;;;;5013459;28;20472;-75
2022/12/06 13:32:14;;;;;;;16.52;9.40;;;7.30;99.90;;;;;;5014189;28;20040;-75
2022/12/06 13:34:48;;;;;;;14.15;8.65;;;7.20;99.90;;;;;;5014240;28;20371;-74
2022/12/06 13:37:52;;;;;;;22.15;9.63;;;7.10;99.90;;;;;;5013114;28;20045;-76
2022/12/06 13:40:47;;;;;;;14.25;8.10;;;6.90;99.90;;;;;;5014061;28;20034;-75
2022/12/06 13:43:25;;;;;;;16.98;10.02;;;7.00;99.90;;;;;;5014306;28;20064;-75